sensor_id;sensor_type;location;lat;lon;timestamp;pressure;altitude;pressure_sealevel;temperature;humidity
58473;BME280;44775;51.564;5.460;2023-08-06T00:00:45;100085.66;;;13.89;100.00
58473;BME280;44775;51.564;5.460;2023-08-06T00:03:10;100066.44;;;13.79;100.00
58473;BME280;44775;51.564;5.460;2023-08-06T00:05:35;100083.38;;;13.92;100.00
58473;BME280;44775;51.564;5.460;2023-08-06T00:08:01;100080.69;;;13.92;100.00
58473;BME280;44775;51.564;5.460;2023-08-06T00:10:26;100082.56;;;13.92;100.00
58473;BME280;44775;51.564;5.460;2023-08-06T00:12:51;100087.09;;;13.91;100.00
58473;BME280;44775;51.564;5.460;2023-08-06T00:15:17;100081.31;;;13.88;100.00
58473;BME280;44775;51.564;5.460;2023-08-06T00:17:42;100080.69;;;13.99;100.00
58473;BME280;44775;51.564;5.460;2023-08-06T00:20:08;100078.22;;;13.98;100.00
58473;BME280;44775;51.564;5.460;2023-08-06T00:22:37;100066.84;;;13.96;100.00
58473;BME280;44775;51.564;5.460;2023-08-06T00:25:03;100075.94;;;14.01;100.00
58473;BME280;44775;51.564;5.460;2023-08-06T00:27:29;100068.88;;;14.00;100.00
58473;BME280;44775;51.564;5.460;2023-08-06T00:29:54;100070.97;;;13.98;100.00
58473;BME280;44775;51.564;5.460;2023-08-06T00:32:21;100076.31;;;14.11;100.00
58473;BME280;44775;51.564;5.460;2023-08-06T00:34:46;100083.34;;;14.06;100.00
58473;BME280;44775;51.564;5.460;2023-08-06T00:37:14;100073.03;;;14.03;100.00
58473;BME280;44775;51.564;5.460;2023-08-06T00:39:39;100073.44;;;14.00;100.00
58473;BME280;44775;51.564;5.460;2023-08-06T00:42:05;100067.66;;;13.96;100.00
58473;BME280;44775;51.564;5.460;2023-08-06T00:44:30;100070.56;;;14.01;100.00
58473;BME280;44775;51.564;5.460;2023-08-06T00:46:55;100071.38;;;13.95;100.00
58473;BME280;44775;51.564;5.460;2023-08-06T00:49:21;100066.41;;;13.99;100.00
58473;BME280;44775;51.564;5.460;2023-08-06T00:51:47;100061.47;;;13.96;100.00
58473;BME280;44775;51.564;5.460;2023-08-06T00:54:12;100059.00;;;13.94;100.00
58473;BME280;44775;51.564;5.460;2023-08-06T00:56:38;100062.28;;;13.96;100.00
58473;BME280;44775;51.564;5.460;2023-08-06T00:59:06;100059.81;;;13.94;100.00
58473;BME280;44775;51.564;5.460;2023-08-06T01:01:32;100063.94;;;13.97;100.00
58473;BME280;44775;51.564;5.460;2023-08-06T01:03:57;100060.22;;;13.98;100.00
58473;BME280;44775;51.564;5.460;2023-08-06T01:06:39;100063.09;;;13.97;100.00
58473;BME280;44775;51.564;5.460;2023-08-06T01:09:16;100064.16;;;13.96;100.00
58473;BME280;44775;51.564;5.460;2023-08-06T01:11:54;100059.81;;;13.94;100.00
58473;BME280;44775;51.564;5.460;2023-08-06T01:14:28;100061.47;;;13.96;100.00
58473;BME280;44775;51.564;5.460;2023-08-06T01:16:56;100056.72;;;13.91;100.00
58473;BME280;44775;51.564;5.460;2023-08-06T01:19:23;100055.69;;;13.92;100.00
58473;BME280;44775;51.564;5.460;2023-08-06T01:21:48;100057.97;;;13.88;100.00
58473;BME280;44775;51.564;5.460;2023-08-06T01:24:14;100060.03;;;13.86;100.00
58473;BME280;44775;51.564;5.460;2023-08-06T01:29:43;100063.34;;;13.82;100.00
58473;BME280;44775;51.564;5.460;2023-08-06T01:32:11;100060.25;;;13.78;100.00
58473;BME280;44775;51.564;5.460;2023-08-06T01:34:39;100052.84;;;13.74;100.00
58473;BME280;44775;51.564;5.460;2023-08-06T01:37:05;100056.34;;;13.74;100.00
58473;BME280;44775;51.564;5.460;2023-08-06T01:39:34;100056.75;;;13.71;100.00
58473;BME280;44775;51.564;5.460;2023-08-06T01:42:00;100053.66;;;13.74;100.00
58473;BME280;44775;51.564;5.460;2023-08-06T01:44:25;100051.00;;;13.67;100.00
58473;BME280;44775;51.564;5.460;2023-08-06T01:46:50;100053.84;;;13.66;100.00
58473;BME280;44775;51.564;5.460;2023-08-06T01:49:16;100062.53;;;13.68;100.00
58473;BME280;44775;51.564;5.460;2023-08-06T01:51:41;100057.59;;;13.72;100.00
58473;BME280;44775;51.564;5.460;2023-08-06T01:54:06;100051.41;;;13.71;100.00
58473;BME280;44775;51.564;5.460;2023-08-06T01:56:32;100058.00;;;13.75;100.00
58473;BME280;44775;51.564;5.460;2023-08-06T01:58:57;100058.63;;;13.77;100.00
58473;BME280;44775;51.564;5.460;2023-08-06T02:01:22;100053.44;;;13.69;100.00
58473;BME280;44775;51.564;5.460;2023-08-06T02:03:48;100054.91;;;13.72;100.00
58473;BME280;44775;51.564;5.460;2023-08-06T02:06:13;100055.50;;;13.80;100.00
58473;BME280;44775;51.564;5.460;2023-08-06T02:08:38;100036.50;;;13.68;100.00
58473;BME280;44775;51.564;5.460;2023-08-06T02:11:04;100061.91;;;13.79;100.00
58473;BME280;44775;51.564;5.460;2023-08-06T02:13:30;100060.03;;;13.73;100.00
58473;BME280;44775;51.564;5.460;2023-08-06T02:15:55;100059.84;;;13.75;100.00
58473;BME280;44775;51.564;5.460;2023-08-06T02:18:20;100055.94;;;13.70;100.00
58473;BME280;44775;51.564;5.460;2023-08-06T02:20:58;100061.09;;;13.72;100.00
58473;BME280;44775;51.564;5.460;2023-08-06T02:23:24;100065.66;;;13.65;100.00
58473;BME280;44775;51.564;5.460;2023-08-06T02:26:00;100059.84;;;13.68;100.00
58473;BME280;44775;51.564;5.460;2023-08-06T02:28:26;100055.72;;;13.65;100.00
58473;BME280;44775;51.564;5.460;2023-08-06T02:30:52;100060.28;;;13.65;100.00
58473;BME280;44775;51.564;5.460;2023-08-06T02:33:17;100057.78;;;13.63;100.00
58473;BME280;44775;51.564;5.460;2023-08-06T02:35:42;100056.13;;;13.62;100.00
58473;BME280;44775;51.564;5.460;2023-08-06T02:38:07;100048.50;;;13.59;100.00
58473;BME280;44775;51.564;5.460;2023-08-06T02:40:33;100051.59;;;13.63;100.00
58473;BME280;44775;51.564;5.460;2023-08-06T02:42:58;100048.09;;;13.62;100.00
58473;BME280;44775;51.564;5.460;2023-08-06T02:45:23;100046.44;;;13.61;100.00
58473;BME280;44775;51.564;5.460;2023-08-06T02:47:49;100041.06;;;13.61;100.00
58473;BME280;44775;51.564;5.460;2023-08-06T02:50:14;100038.38;;;13.61;100.00
58473;BME280;44775;51.564;5.460;2023-08-06T02:52:39;100050.56;;;13.64;100.00
58473;BME280;44775;51.564;5.460;2023-08-06T02:55:06;100047.25;;;13.62;100.00
58473;BME280;44775;51.564;5.460;2023-08-06T02:57:31;100044.59;;;13.62;100.00
58473;BME280;44775;51.564;5.460;2023-08-06T02:59:57;100038.78;;;13.65;100.00
58473;BME280;44775;51.564;5.460;2023-08-06T03:02:22;100040.66;;;13.64;100.00
58473;BME280;44775;51.564;5.460;2023-08-06T03:04:47;100038.56;;;13.66;100.00
58473;BME280;44775;51.564;5.460;2023-08-06T03:07:13;100041.91;;;13.62;100.00
58473;BME280;44775;51.564;5.460;2023-08-06T03:09:38;100045.41;;;13.62;100.00
58473;BME280;44775;51.564;5.460;2023-08-06T03:12:03;100048.91;;;13.63;100.00
58473;BME280;44775;51.564;5.460;2023-08-06T03:14:29;100041.47;;;13.65;100.00
58473;BME280;44775;51.564;5.460;2023-08-06T03:16:54;100050.16;;;13.67;100.00
58473;BME280;44775;51.564;5.460;2023-08-06T03:19:19;100044.59;;;13.62;100.00
58473;BME280;44775;51.564;5.460;2023-08-06T03:21:45;100046.63;;;13.66;100.00
58473;BME280;44775;51.564;5.460;2023-08-06T03:24:10;100039.84;;;13.64;100.00
58473;BME280;44775;51.564;5.460;2023-08-06T03:26:35;100045.22;;;13.64;100.00
58473;BME280;44775;51.564;5.460;2023-08-06T03:29:01;100046.03;;;13.64;100.00
58473;BME280;44775;51.564;5.460;2023-08-06T03:31:26;100048.91;;;13.63;100.00
58473;BME280;44775;51.564;5.460;2023-08-06T03:33:51;100050.56;;;13.64;100.00
58473;BME280;44775;51.564;5.460;2023-08-06T03:36:17;100049.94;;;13.62;100.00
58473;BME280;44775;51.564;5.460;2023-08-06T03:38:42;100042.13;;;13.60;100.00
58473;BME280;44775;51.564;5.460;2023-08-06T03:41:07;100040.66;;;13.58;100.00
58473;BME280;44775;51.564;5.460;2023-08-06T03:43:33;100045.00;;;13.59;100.00
58473;BME280;44775;51.564;5.460;2023-08-06T03:45:58;100049.53;;;13.58;100.00
58473;BME280;44775;51.564;5.460;2023-08-06T03:48:23;100041.25;;;13.60;100.00
58473;BME280;44775;51.564;5.460;2023-08-06T03:50:48;100039.44;;;13.54;100.00
58473;BME280;44775;51.564;5.460;2023-08-06T03:53:14;100047.69;;;13.59;100.00
58473;BME280;44775;51.564;5.460;2023-08-06T03:55:39;100047.06;;;13.57;100.00
58473;BME280;44775;51.564;5.460;2023-08-06T03:58:04;100051.00;;;13.61;100.00
58473;BME280;44775;51.564;5.460;2023-08-06T04:00:30;100051.59;;;13.56;100.00
58473;BME280;44775;51.564;5.460;2023-08-06T04:02:55;100057.81;;;13.57;100.00
58473;BME280;44775;51.564;5.460;2023-08-06T04:05:20;100054.09;;;13.58;100.00
58473;BME280;44775;51.564;5.460;2023-08-06T04:07:46;100056.78;;;13.58;100.00
58473;BME280;44775;51.564;5.460;2023-08-06T04:10:11;100059.47;;;13.58;100.00
58473;BME280;44775;51.564;5.460;2023-08-06T04:12:36;100045.00;;;13.52;100.00
58473;BME280;44775;51.564;5.460;2023-08-06T04:15:04;100055.13;;;13.57;100.00
58473;BME280;44775;51.564;5.460;2023-08-06T04:17:30;100056.56;;;13.53;100.00
58473;BME280;44775;51.564;5.460;2023-08-06T04:19:55;100065.84;;;13.63;100.00
58473;BME280;44775;51.564;5.460;2023-08-06T04:22:23;100067.28;;;13.66;100.00
58473;BME280;44775;51.564;5.460;2023-08-06T04:24:49;100064.41;;;13.61;100.00
58473;BME280;44775;51.564;5.460;2023-08-06T04:27:15;100066.28;;;13.60;100.00
58473;BME280;44775;51.564;5.460;2023-08-06T04:29:40;100067.28;;;13.59;100.00
58473;BME280;44775;51.564;5.460;2023-08-06T04:32:07;100059.47;;;13.58;100.00
58473;BME280;44775;51.564;5.460;2023-08-06T04:34:33;100066.06;;;13.62;100.00
58473;BME280;44775;51.564;5.460;2023-08-06T04:36:59;100071.84;;;13.59;100.00
58473;BME280;44775;51.564;5.460;2023-08-06T04:39:25;100068.97;;;13.60;100.00
58473;BME280;44775;51.564;5.460;2023-08-06T04:41:50;100077.84;;;13.61;100.00
58473;BME280;44775;51.564;5.460;2023-08-06T04:44:16;100078.25;;;13.64;100.00
58473;BME280;44775;51.564;5.460;2023-08-06T04:46:41;100077.19;;;13.65;100.00
58473;BME280;44775;51.564;5.460;2023-08-06T04:49:06;100078.84;;;13.73;100.00
58473;BME280;44775;51.564;5.460;2023-08-06T04:51:32;100079.69;;;13.74;100.00
58473;BME280;44775;51.564;5.460;2023-08-06T04:53:57;100075.97;;;13.75;100.00
58473;BME280;44775;51.564;5.460;2023-08-06T04:56:22;100069.78;;;13.74;100.00
58473;BME280;44775;51.564;5.460;2023-08-06T04:58:48;100077.41;;;13.77;100.00
58473;BME280;44775;51.564;5.460;2023-08-06T05:01:13;100081.34;;;13.81;100.00
58473;BME280;44775;51.564;5.460;2023-08-06T05:03:38;100075.97;;;13.81;100.00
58473;BME280;44775;51.564;5.460;2023-08-06T05:06:04;100075.13;;;13.81;100.00
58473;BME280;44775;51.564;5.460;2023-08-06T05:08:29;100084.63;;;13.83;100.00
58473;BME280;44775;51.564;5.460;2023-08-06T05:10:55;100081.75;;;13.85;100.00
58473;BME280;44775;51.564;5.460;2023-08-06T05:13:20;100094.53;;;13.89;100.00
58473;BME280;44775;51.564;5.460;2023-08-06T05:15:45;100087.09;;;13.91;100.00
58473;BME280;44775;51.564;5.460;2023-08-06T05:18:11;100090.84;;;13.90;100.00
58473;BME280;44775;51.564;5.460;2023-08-06T05:20:40;100101.53;;;13.97;100.00
58473;BME280;44775;51.564;5.460;2023-08-06T05:23:06;100103.19;;;14.05;100.00
58473;BME280;44775;51.564;5.460;2023-08-06T05:25:31;100108.34;;;14.13;100.00
58473;BME280;44775;51.564;5.460;2023-08-06T05:27:57;100118.41;;;14.31;100.00
58473;BME280;44775;51.564;5.460;2023-08-06T05:30:22;100114.50;;;14.33;100.00
58473;BME280;44775;51.564;5.460;2023-08-06T05:32:47;100110.56;;;14.36;100.00
58473;BME280;44775;51.564;5.460;2023-08-06T05:35:13;100127.47;;;14.50;100.00
58473;BME280;44775;51.564;5.460;2023-08-06T05:37:38;100129.53;;;14.61;100.00
58473;BME280;44775;51.564;5.460;2023-08-06T05:40:04;100138.16;;;14.76;100.00
58473;BME280;44775;51.564;5.460;2023-08-06T05:42:29;100137.91;;;14.84;100.00
58473;BME280;44775;51.564;5.460;2023-08-06T05:44:55;100134.13;;;14.99;100.00
58473;BME280;44775;51.564;5.460;2023-08-06T05:47:20;100149.16;;;15.13;100.00
58473;BME280;44775;51.564;5.460;2023-08-06T05:49:45;100147.59;;;15.30;100.00
58473;BME280;44775;51.564;5.460;2023-08-06T05:52:11;100143.63;;;15.40;100.00
58473;BME280;44775;51.564;5.460;2023-08-06T05:54:36;100150.50;;;15.61;100.00
58473;BME280;44775;51.564;5.460;2023-08-06T05:57:02;100158.25;;;15.82;100.00
58473;BME280;44775;51.564;5.460;2023-08-06T05:59:27;100149.97;;;15.84;100.00
58473;BME280;44775;51.564;5.460;2023-08-06T06:01:52;100166.44;;;15.94;100.00
58473;BME280;44775;51.564;5.460;2023-08-06T06:04:18;100163.47;;;16.02;100.00
58473;BME280;44775;51.564;5.460;2023-08-06T06:06:43;100170.06;;;16.06;100.00
58473;BME280;44775;51.564;5.460;2023-08-06T06:09:10;100175.19;;;16.14;100.00
58473;BME280;44775;51.564;5.460;2023-08-06T06:11:35;100181.78;;;16.18;100.00
58473;BME280;44775;51.564;5.460;2023-08-06T06:14:00;100192.25;;;16.26;100.00
58473;BME280;44775;51.564;5.460;2023-08-06T06:16:25;100183.72;;;16.29;100.00
58473;BME280;44775;51.564;5.460;2023-08-06T06:18:51;100192.38;;;16.38;100.00
58473;BME280;44775;51.564;5.460;2023-08-06T06:21:16;100192.91;;;16.47;100.00
58473;BME280;44775;51.564;5.460;2023-08-06T06:23:42;100194.94;;;16.51;100.00
58473;BME280;44775;51.564;5.460;2023-08-06T06:26:07;100201.91;;;16.59;100.00
58473;BME280;44775;51.564;5.460;2023-08-06T06:28:33;100207.03;;;16.67;100.00
58473;BME280;44775;51.564;5.460;2023-08-06T06:31:01;100219.00;;;16.71;100.00
58473;BME280;44775;51.564;5.460;2023-08-06T06:33:27;100217.09;;;16.79;100.00
58473;BME280;44775;51.564;5.460;2023-08-06T06:35:52;100219.59;;;16.73;100.00
58473;BME280;44775;51.564;5.460;2023-08-06T06:38:17;100218.25;;;16.64;100.00
58473;BME280;44775;51.564;5.460;2023-08-06T06:40:43;100231.38;;;16.61;100.00
58473;BME280;44775;51.564;5.460;2023-08-06T06:43:08;100227.31;;;16.51;100.00
58473;BME280;44775;51.564;5.460;2023-08-06T06:45:33;100234.41;;;16.46;100.00
58473;BME280;44775;51.564;5.460;2023-08-06T06:47:58;100231.44;;;16.29;100.00
58473;BME280;44775;51.564;5.460;2023-08-06T06:50:24;100229.59;;;16.04;100.00
58473;BME280;44775;51.564;5.460;2023-08-06T06:52:49;100228.63;;;15.92;100.00
58473;BME280;44775;51.564;5.460;2023-08-06T06:55:15;100230.16;;;15.81;100.00
58473;BME280;44775;51.564;5.460;2023-08-06T06:57:40;100234.63;;;15.69;100.00
58473;BME280;44775;51.564;5.460;2023-08-06T07:00:06;100238.78;;;15.58;100.00
58473;BME280;44775;51.564;5.460;2023-08-06T07:02:31;100232.59;;;15.51;100.00
58473;BME280;44775;51.564;5.460;2023-08-06T07:04:56;100240.13;;;15.43;100.00
58473;BME280;44775;51.564;5.460;2023-08-06T07:07:22;100239.53;;;15.34;100.00
58473;BME280;44775;51.564;5.460;2023-08-06T07:09:47;100247.88;;;15.26;100.00
58473;BME280;44775;51.564;5.460;2023-08-06T07:12:12;100246.88;;;15.14;100.00
58473;BME280;44775;51.564;5.460;2023-08-06T07:14:38;100244.41;;;15.12;100.00
58473;BME280;44775;51.564;5.460;2023-08-06T07:17:04;100250.44;;;15.01;100.00
58473;BME280;44775;51.564;5.460;2023-08-06T07:19:30;100259.13;;;15.03;100.00
58473;BME280;44775;51.564;5.460;2023-08-06T07:21:55;100253.75;;;15.03;100.00
58473;BME280;44775;51.564;5.460;2023-08-06T07:24:21;100255.19;;;15.05;100.00
58473;BME280;44775;51.564;5.460;2023-08-06T07:26:46;100271.94;;;15.01;100.00
58473;BME280;44775;51.564;5.460;2023-08-06T07:29:12;100274.44;;;15.02;100.00
58473;BME280;44775;51.564;5.460;2023-08-06T07:31:37;100292.88;;;14.99;100.00
58473;BME280;44775;51.564;5.460;2023-08-06T07:34:02;100297.03;;;14.88;100.00
58473;BME280;44775;51.564;5.460;2023-08-06T07:36:28;100297.66;;;14.90;100.00
58473;BME280;44775;51.564;5.460;2023-08-06T07:38:53;100300.34;;;14.83;100.00
58473;BME280;44775;51.564;5.460;2023-08-06T07:41:22;100294.78;;;14.78;100.00
58473;BME280;44775;51.564;5.460;2023-08-06T07:43:48;100302.66;;;14.67;100.00
58473;BME280;44775;51.564;5.460;2023-08-06T07:46:13;100292.31;;;14.57;100.00
58473;BME280;44775;51.564;5.460;2023-08-06T07:48:39;100299.94;;;14.47;100.00
58473;BME280;44775;51.564;5.460;2023-08-06T07:51:04;100304.91;;;14.36;100.00
58473;BME280;44775;51.564;5.460;2023-08-06T07:53:29;100305.31;;;14.47;100.00
58473;BME280;44775;51.564;5.460;2023-08-06T07:55:56;100290.88;;;14.41;100.00
58473;BME280;44775;51.564;5.460;2023-08-06T07:58:24;100316.72;;;14.49;100.00
58473;BME280;44775;51.564;5.460;2023-08-06T08:00:49;100309.06;;;14.72;100.00
58473;BME280;44775;51.564;5.460;2023-08-06T08:03:15;100305.16;;;14.68;100.00
58473;BME280;44775;51.564;5.460;2023-08-06T08:05:44;100311.53;;;14.67;100.00
58473;BME280;44775;51.564;5.460;2023-08-06T08:08:10;100302.47;;;14.61;100.00
58473;BME280;44775;51.564;5.460;2023-08-06T08:10:35;100315.47;;;14.78;100.00
58473;BME280;44775;51.564;5.460;2023-08-06T08:13:04;100320.41;;;14.81;100.00
58473;BME280;44775;51.564;5.460;2023-08-06T08:15:31;100308.03;;;14.73;100.00
58473;BME280;44775;51.564;5.460;2023-08-06T08:17:56;100322.69;;;14.91;100.00
58473;BME280;44775;51.564;5.460;2023-08-06T08:20:22;100317.72;;;14.87;100.00
58473;BME280;44775;51.564;5.460;2023-08-06T08:22:47;100295.41;;;14.74;100.00
58473;BME280;44775;51.564;5.460;2023-08-06T08:25:13;100333.00;;;15.00;100.00
58473;BME280;44775;51.564;5.460;2023-08-06T08:27:39;100328.66;;;15.13;100.00
58473;BME280;44775;51.564;5.460;2023-08-06T08:30:05;100337.34;;;15.01;100.00
58473;BME280;44775;51.564;5.460;2023-08-06T08:32:31;100351.84;;;15.00;100.00
58473;BME280;44775;51.564;5.460;2023-08-06T08:34:56;100341.72;;;15.02;100.00
58473;BME280;44775;51.564;5.460;2023-08-06T08:37:22;100339.63;;;14.98;100.00
58473;BME280;44775;51.564;5.460;2023-08-06T08:39:48;100345.84;;;14.98;100.00
58473;BME280;44775;51.564;5.460;2023-08-06T08:42:13;100357.47;;;14.85;100.00
58473;BME280;44775;51.564;5.460;2023-08-06T08:44:42;100353.31;;;14.83;100.00
58473;BME280;44775;51.564;5.460;2023-08-06T08:47:08;100350.63;;;14.96;100.00
58473;BME280;44775;51.564;5.460;2023-08-06T08:49:36;100364.69;;;14.98;100.00
58473;BME280;44775;51.564;5.460;2023-08-06T08:52:03;100361.81;;;14.93;100.00
58473;BME280;44775;51.564;5.460;2023-08-06T08:54:32;100363.03;;;14.91;100.00
58473;BME280;44775;51.564;5.460;2023-08-06T08:56:58;100369.47;;;14.90;100.00
58473;BME280;44775;51.564;5.460;2023-08-06T08:59:23;100358.47;;;14.84;100.00
58473;BME280;44775;51.564;5.460;2023-08-06T09:01:48;100369.47;;;14.90;100.00
58473;BME280;44775;51.564;5.460;2023-08-06T09:04:17;100371.94;;;14.84;100.00
58473;BME280;44775;51.564;5.460;2023-08-06T09:06:43;100381.88;;;14.91;100.00
58473;BME280;44775;51.564;5.460;2023-08-06T09:09:17;100384.97;;;14.94;100.00
58473;BME280;44775;51.564;5.460;2023-08-06T09:11:47;100393.88;;;14.81;100.00
58473;BME280;44775;51.564;5.460;2023-08-06T09:14:14;100390.56;;;14.66;100.00
58473;BME280;44775;51.564;5.460;2023-08-06T09:16:40;100382.09;;;14.62;100.00
58473;BME280;44775;51.564;5.460;2023-08-06T09:21:36;100403.81;;;14.68;100.00
58473;BME280;44775;51.564;5.460;2023-08-06T09:24:10;100399.28;;;14.68;100.00
58473;BME280;44775;51.564;5.460;2023-08-06T09:26:37;100406.91;;;14.78;100.00
58473;BME280;44775;51.564;5.460;2023-08-06T09:29:05;100412.50;;;14.76;100.00
58473;BME280;44775;51.564;5.460;2023-08-06T09:34:10;100415.38;;;14.81;100.00
58473;BME280;44775;51.564;5.460;2023-08-06T09:36:40;100420.34;;;14.91;100.00
58473;BME280;44775;51.564;5.460;2023-08-06T09:39:12;100419.53;;;14.84;100.00
58473;BME280;44775;51.564;5.460;2023-08-06T09:41:38;100425.13;;;14.89;100.00
58473;BME280;44775;51.564;5.460;2023-08-06T09:44:04;100423.47;;;14.88;100.00
58473;BME280;44775;51.564;5.460;2023-08-06T09:46:32;100427.41;;;14.85;100.00
58473;BME280;44775;51.564;5.460;2023-08-06T09:48:57;100425.97;;;14.83;100.00
58473;BME280;44775;51.564;5.460;2023-08-06T09:51:23;100431.53;;;14.88;100.00
58473;BME280;44775;51.564;5.460;2023-08-06T09:53:48;100424.50;;;14.80;100.00
58473;BME280;44775;51.564;5.460;2023-08-06T09:56:15;100442.28;;;14.88;100.00
58473;BME280;44775;51.564;5.460;2023-08-06T09:58:41;100438.59;;;14.89;100.00
58473;BME280;44775;51.564;5.460;2023-08-06T10:01:07;100438.59;;;14.89;100.00
58473;BME280;44775;51.564;5.460;2023-08-06T10:03:33;100444.38;;;14.93;100.00
58473;BME280;44775;51.564;5.460;2023-08-06T10:05:59;100442.69;;;14.92;100.00
58473;BME280;44775;51.564;5.460;2023-08-06T10:08:27;100450.59;;;14.86;100.00
58473;BME280;44775;51.564;5.460;2023-08-06T10:10:52;100449.53;;;14.94;100.00
58473;BME280;44775;51.564;5.460;2023-08-06T10:13:19;100458.44;;;15.01;100.00
58473;BME280;44775;51.564;5.460;2023-08-06T10:15:48;100457.19;;;15.04;100.00
58473;BME280;44775;51.564;5.460;2023-08-06T10:18:15;100436.50;;;14.91;100.00
58473;BME280;44775;51.564;5.460;2023-08-06T10:20:46;100465.09;;;15.12;100.00
58473;BME280;44775;51.564;5.460;2023-08-06T10:23:11;100467.34;;;15.15;100.00
58473;BME280;44775;51.564;5.460;2023-08-06T10:25:42;100464.22;;;15.18;100.00
58473;BME280;44775;51.564;5.460;2023-08-06T10:28:11;100454.91;;;15.21;100.00
58473;BME280;44775;51.564;5.460;2023-08-06T10:30:47;100461.75;;;15.30;100.00
58473;BME280;44775;51.564;5.460;2023-08-06T10:33:12;100458.44;;;15.21;100.00
58473;BME280;44775;51.564;5.460;2023-08-06T10:35:47;100470.44;;;15.25;100.00
58473;BME280;44775;51.564;5.460;2023-08-06T10:38:17;100474.56;;;15.34;100.00
58473;BME280;44775;51.564;5.460;2023-08-06T10:43:32;100466.91;;;15.31;100.00
58473;BME280;44775;51.564;5.460;2023-08-06T10:45:58;100473.34;;;15.30;100.00
58473;BME280;44775;51.564;5.460;2023-08-06T10:51:00;100484.50;;;15.41;100.00
58473;BME280;44775;51.564;5.460;2023-08-06T10:53:25;100484.09;;;15.37;100.00
58473;BME280;44775;51.564;5.460;2023-08-06T10:55:51;100478.31;;;15.27;100.00
58473;BME280;44775;51.564;5.460;2023-08-06T10:58:16;100493.22;;;15.43;100.00
58473;BME280;44775;51.564;5.460;2023-08-06T11:00:42;100479.53;;;15.44;100.00
58473;BME280;44775;51.564;5.460;2023-08-06T11:06:21;100484.72;;;15.39;100.00
58473;BME280;44775;51.564;5.460;2023-08-06T11:08:49;100476.03;;;15.24;100.00
58473;BME280;44775;51.564;5.460;2023-08-06T11:11:15;100479.94;;;15.34;100.00
58473;BME280;44775;51.564;5.460;2023-08-06T11:13:46;100484.34;;;15.22;100.00
58473;BME280;44775;51.564;5.460;2023-08-06T11:16:16;100497.78;;;15.35;100.00
58473;BME280;44775;51.564;5.460;2023-08-06T11:18:42;100483.47;;;15.22;100.00
58473;BME280;44775;51.564;5.460;2023-08-06T11:21:08;100500.03;;;15.25;100.00
58473;BME280;44775;51.564;5.460;2023-08-06T11:23:34;100491.78;;;15.27;100.00
58473;BME280;44775;51.564;5.460;2023-08-06T11:26:00;100493.22;;;15.23;100.00
58473;BME280;44775;51.564;5.460;2023-08-06T11:28:26;100495.50;;;15.26;100.00
58473;BME280;44775;51.564;5.460;2023-08-06T11:30:52;100496.13;;;15.28;100.00
58473;BME280;44775;51.564;5.460;2023-08-06T11:33:24;100503.34;;;15.41;100.00
58473;BME280;44775;51.564;5.460;2023-08-06T11:35:54;100491.75;;;15.40;100.00
58473;BME280;44775;51.564;5.460;2023-08-06T11:38:20;100491.75;;;15.47;100.00
58473;BME280;44775;51.564;5.460;2023-08-06T11:40:45;100495.69;;;15.51;100.00
58473;BME280;44775;51.564;5.460;2023-08-06T11:43:12;100508.72;;;15.54;100.00
58473;BME280;44775;51.564;5.460;2023-08-06T11:45:38;100502.28;;;15.55;100.00
58473;BME280;44775;51.564;5.460;2023-08-06T11:48:05;100504.97;;;15.62;100.00
58473;BME280;44775;51.564;5.460;2023-08-06T11:50:31;100492.16;;;15.64;100.00
58473;BME280;44775;51.564;5.460;2023-08-06T11:52:58;100516.38;;;15.77;100.00
58473;BME280;44775;51.564;5.460;2023-08-06T11:55:24;100509.13;;;15.77;100.00
58473;BME280;44775;51.564;5.460;2023-08-06T11:57:50;100510.16;;;15.90;100.00
58473;BME280;44775;51.564;5.460;2023-08-06T12:00:16;100509.69;;;15.93;100.00
58473;BME280;44775;51.564;5.460;2023-08-06T12:02:46;100517.97;;;16.04;100.00
58473;BME280;44775;51.564;5.460;2023-08-06T12:07:45;100517.91;;;16.24;100.00
58473;BME280;44775;51.564;5.460;2023-08-06T12:10:12;100513.75;;;16.22;100.00
58473;BME280;44775;51.564;5.460;2023-08-06T12:12:38;100516.84;;;16.25;100.00
58473;BME280;44775;51.564;5.460;2023-08-06T12:15:04;100520.56;;;16.31;100.00
58473;BME280;44775;51.564;5.460;2023-08-06T12:17:30;100528.44;;;16.33;100.00
58473;BME280;44775;51.564;5.460;2023-08-06T12:19:55;100516.63;;;16.34;100.00
58473;BME280;44775;51.564;5.460;2023-08-06T12:22:20;100526.91;;;16.43;100.00
58473;BME280;44775;51.564;5.460;2023-08-06T12:24:47;100537.19;;;16.66;100.00
58473;BME280;44775;51.564;5.460;2023-08-06T12:27:13;100544.41;;;16.79;100.00
58473;BME280;44775;51.564;5.460;2023-08-06T12:29:43;100533.75;;;16.91;100.00
58473;BME280;44775;51.564;5.460;2023-08-06T12:32:12;100537.84;;;17.00;100.00
58473;BME280;44775;51.564;5.460;2023-08-06T12:34:41;100538.91;;;17.24;100.00
58473;BME280;44775;51.564;5.460;2023-08-06T12:37:08;100541.44;;;17.44;100.00
58473;BME280;44775;51.564;5.460;2023-08-06T12:39:36;100539.81;;;17.61;100.00
58473;BME280;44775;51.564;5.460;2023-08-06T12:42:02;100543.19;;;17.82;100.00
58473;BME280;44775;51.564;5.460;2023-08-06T12:44:28;100541.53;;;17.81;100.00
58473;BME280;44775;51.564;5.460;2023-08-06T12:46:54;100538.84;;;17.81;100.00
58473;BME280;44775;51.564;5.460;2023-08-06T12:49:19;100548.44;;;17.77;100.00
58473;BME280;44775;51.564;5.460;2023-08-06T12:51:51;100544.63;;;17.59;100.00
58473;BME280;44775;51.564;5.460;2023-08-06T12:54:17;100548.34;;;17.40;100.00